createdAt,value
2023-01-29T00:01:10.504Z,102280.28
2023-01-29T00:03:34.736Z,102281.81
2023-01-29T00:05:58.447Z,102279.81
2023-01-29T00:08:22.153Z,102278.69
2023-01-29T00:10:45.831Z,102283.91
2023-01-29T00:13:09.575Z,102280.19
2023-01-29T00:15:33.411Z,102278.78
2023-01-29T00:17:58.601Z,102262.63
2023-01-29T00:20:22.348Z,102265.53
2023-01-29T00:22:46.336Z,102262.63
2023-01-29T00:25:11.640Z,102257.41
2023-01-29T00:27:35.407Z,102260.88
2023-01-29T00:30:12.047Z,102250.41
2023-01-29T00:32:35.949Z,102255.97
2023-01-29T00:35:01.046Z,102257.69
2023-01-29T00:37:24.843Z,102252.34
2023-01-29T00:39:48.563Z,102242.81
2023-01-29T00:42:29.004Z,102241.84
2023-01-29T00:44:59.076Z,102245.63
2023-01-29T00:47:33.437Z,102239.34
2023-01-29T00:49:57.404Z,102240.06
2023-01-29T00:52:25.416Z,102237.94
2023-01-29T00:54:49.195Z,102243.69
2023-01-29T00:57:12.936Z,102239.09
2023-01-29T00:59:36.730Z,102241.84
2023-01-29T01:02:17.793Z,102241.84
2023-01-29T01:04:41.781Z,102254.63
2023-01-29T01:07:05.619Z,102255.78
2023-01-29T01:09:48.236Z,102262.94
2023-01-29T01:12:11.960Z,102254.22
2023-01-29T01:14:36.238Z,102252.13
2023-01-29T01:17:00.433Z,102252.28
2023-01-29T01:19:24.185Z,102256.66
2023-01-29T01:21:48.412Z,102261.13
2023-01-29T01:24:12.253Z,102260.09
2023-01-29T01:26:37.608Z,102243.25
2023-01-29T01:29:01.270Z,102244.91
2023-01-29T01:31:25.194Z,102236.97
2023-01-29T01:33:48.918Z,102244.09
2023-01-29T01:36:14.088Z,102248.38
2023-01-29T01:38:44.373Z,102251.81
2023-01-29T01:41:08.476Z,102251.59
2023-01-29T01:43:56.060Z,102246.28
2023-01-29T01:46:20.186Z,102248.69
2023-01-29T01:48:44.374Z,102241.94
2023-01-29T01:51:08.680Z,102243.41
2023-01-29T01:53:38.725Z,102238.97
2023-01-29T01:56:07.349Z,102242.84
2023-01-29T01:58:36.513Z,102231.38
2023-01-29T02:01:02.135Z,102225.97
2023-01-29T02:03:45.409Z,102222.22
2023-01-29T02:06:28.738Z,102224.75
2023-01-29T02:09:16.637Z,102223.69
2023-01-29T02:11:40.931Z,102220.28
2023-01-29T02:14:04.952Z,102220.28
2023-01-29T02:16:30.596Z,102209.28
2023-01-29T02:18:54.960Z,102203.72
2023-01-29T02:21:51.750Z,102201.88
2023-01-29T02:24:52.683Z,102206.06
2023-01-29T02:27:19.897Z,102210.72
2023-01-29T02:29:56.741Z,102210.69
2023-01-29T02:32:29.382Z,102212.09
2023-01-29T02:35:29.870Z,102211.63
2023-01-29T02:38:05.223Z,102207.38
2023-01-29T02:40:36.401Z,102208.72
2023-01-29T02:43:10.276Z,102203.81
2023-01-29T02:45:45.041Z,102200.00
2023-01-29T02:48:12.097Z,102199.25
2023-01-29T02:50:44.935Z,102202.16
2023-01-29T02:53:15.643Z,102191.75
2023-01-29T02:55:46.312Z,102192.66
2023-01-29T02:58:16.340Z,102194.13
2023-01-29T03:00:47.456Z,102192.16
2023-01-29T03:03:17.264Z,102200.00
2023-01-29T03:05:55.000Z,102193.22
2023-01-29T03:08:42.998Z,102192.78
2023-01-29T03:11:08.375Z,102192.94
2023-01-29T03:13:42.215Z,102189.44
2023-01-29T03:16:15.853Z,102184.53
2023-01-29T03:18:50.838Z,102192.31
2023-01-29T03:21:38.223Z,102191.50
2023-01-29T03:24:19.470Z,102185.50
2023-01-29T03:27:03.424Z,102177.16
2023-01-29T03:29:51.315Z,102180.09
2023-01-29T03:32:18.813Z,102175.31
2023-01-29T03:34:51.831Z,102161.78
2023-01-29T03:37:22.647Z,102156.50
2023-01-29T03:39:46.821Z,102142.53
2023-01-29T03:42:20.548Z,102130.94
2023-01-29T03:44:54.501Z,102131.63
2023-01-29T03:47:40.544Z,102129.59
2023-01-29T03:50:12.322Z,102126.78
2023-01-29T03:52:47.346Z,102130.38
2023-01-29T03:55:17.687Z,102123.72
2023-01-29T03:57:45.708Z,102118.53
2023-01-29T04:00:19.761Z,102104.13
2023-01-29T04:03:03.188Z,102113.22
2023-01-29T04:05:36.020Z,102103.53
2023-01-29T04:08:12.319Z,102100.81
2023-01-29T04:10:39.540Z,102100.56
2023-01-29T04:13:07.996Z,102094.59
2023-01-29T04:15:36.604Z,102095.72
2023-01-29T04:18:02.280Z,102086.53
2023-01-29T04:20:52.404Z,102088.28
2023-01-29T04:23:24.570Z,102084.13
2023-01-29T04:25:58.022Z,102080.75
2023-01-29T04:28:26.677Z,102069.69
2023-01-29T04:30:56.188Z,102062.16
2023-01-29T04:33:32.457Z,102062.94
2023-01-29T04:36:16.265Z,102069.88
2023-01-29T04:38:55.887Z,102074.47
2023-01-29T04:41:26.869Z,102078.53
2023-01-29T04:44:01.549Z,102086.91
2023-01-29T04:46:35.068Z,102080.88
2023-01-29T04:49:18.696Z,102079.53
2023-01-29T04:51:51.140Z,102081.59
2023-01-29T04:54:25.755Z,102080.16
2023-01-29T04:56:56.674Z,102084.56
2023-01-29T04:59:26.851Z,102085.66
2023-01-29T05:01:51.126Z,102086.59
2023-01-29T05:04:21.259Z,102083.53
2023-01-29T05:06:46.727Z,102089.00
2023-01-29T05:09:11.278Z,102084.25
2023-01-29T05:11:35.894Z,102086.44
2023-01-29T05:14:00.583Z,102091.25
2023-01-29T05:16:29.354Z,102079.56
2023-01-29T05:18:53.547Z,102077.22
2023-01-29T05:21:18.854Z,102078.53
2023-01-29T05:23:57.371Z,102078.59
2023-01-29T05:26:39.895Z,102085.66
2023-01-29T05:29:03.633Z,102082.16
2023-01-29T05:31:27.394Z,102081.78
2023-01-29T05:33:51.223Z,102086.00
2023-01-29T05:36:14.870Z,102093.22
2023-01-29T05:38:40.059Z,102090.75
2023-01-29T05:41:03.824Z,102084.13
2023-01-29T05:43:27.676Z,102084.84
2023-01-29T05:45:55.555Z,102084.47
2023-01-29T05:48:19.387Z,102087.41
2023-01-29T05:50:43.137Z,102090.25
2023-01-29T05:53:06.981Z,102087.25
2023-01-29T05:55:32.142Z,102097.38
2023-01-29T05:57:55.968Z,102096.66
2023-01-29T06:00:20.892Z,102103.25
2023-01-29T06:02:45.267Z,102096.75
2023-01-29T06:05:10.299Z,102100.44
2023-01-29T06:07:34.086Z,102101.78
2023-01-29T06:09:57.716Z,102114.47
2023-01-29T06:12:22.835Z,102107.56
2023-01-29T06:14:46.461Z,102102.13
2023-01-29T06:17:10.242Z,102109.41
2023-01-29T06:19:33.912Z,102096.84
2023-01-29T06:21:57.650Z,102094.03
2023-01-29T06:24:21.318Z,102086.16
2023-01-29T06:26:45.138Z,102090.75
2023-01-29T06:29:10.307Z,102094.78
2023-01-29T06:31:38.757Z,102090.88
2023-01-29T06:34:03.893Z,102087.63
2023-01-29T06:36:27.579Z,102089.53
2023-01-29T06:38:51.340Z,102088.81
2023-01-29T06:41:19.925Z,102089.03
2023-01-29T06:43:45.896Z,102098.59
2023-01-29T06:46:11.169Z,102094.81
2023-01-29T06:48:34.810Z,102108.09
2023-01-29T06:51:03.316Z,102111.69
2023-01-29T06:53:27.094Z,102108.09
2023-01-29T06:55:53.443Z,102109.06
2023-01-29T06:58:17.096Z,102107.44
2023-01-29T07:00:41.028Z,102107.22
2023-01-29T07:03:06.711Z,102092.13
2023-01-29T07:05:30.510Z,102089.38
2023-01-29T07:07:54.239Z,102099.91
2023-01-29T07:10:18.672Z,102092.97
2023-01-29T07:12:42.498Z,102091.91
2023-01-29T07:15:07.812Z,102093.69
2023-01-29T07:17:31.494Z,102085.03
2023-01-29T07:19:56.703Z,102102.16
2023-01-29T07:22:20.395Z,102102.22
2023-01-29T07:24:44.817Z,102107.06
2023-01-29T07:27:08.599Z,102115.34
2023-01-29T07:29:32.295Z,102106.09
2023-01-29T07:31:56.079Z,102111.38
2023-01-29T07:34:20.054Z,102106.22
2023-01-29T07:36:45.334Z,102103.38
2023-01-29T07:39:09.113Z,102098.28
2023-01-29T07:41:32.844Z,102087.03
2023-01-29T07:43:56.783Z,102085.13
2023-01-29T07:46:20.500Z,102062.59
2023-01-29T07:48:44.369Z,102059.69
2023-01-29T07:51:08.421Z,102056.31
2023-01-29T07:53:33.869Z,102051.34
2023-01-29T07:55:58.035Z,102064.88
2023-01-29T07:58:22.260Z,102071.38
2023-01-29T08:00:46.374Z,102065.28
2023-01-29T08:03:16.239Z,102060.19
2023-01-29T08:05:40.418Z,102055.09
2023-01-29T08:08:07.359Z,102048.41
2023-01-29T08:10:33.109Z,102047.59
2023-01-29T08:12:58.266Z,102040.84
2023-01-29T08:15:22.011Z,102051.50
2023-01-29T08:17:57.224Z,102055.03
2023-01-29T08:20:23.369Z,102072.44
2023-01-29T08:22:47.965Z,102064.81
2023-01-29T08:25:11.993Z,102056.16
2023-01-29T08:27:37.640Z,102059.84
2023-01-29T08:30:01.645Z,102054.72
2023-01-29T08:32:25.486Z,102059.59
2023-01-29T08:34:49.318Z,102056.94
2023-01-29T08:37:13.193Z,102061.00
2023-01-29T08:39:36.963Z,102050.09
2023-01-29T08:42:00.653Z,102048.63
2023-01-29T08:44:25.963Z,102041.66
2023-01-29T08:46:49.694Z,102040.59
2023-01-29T08:49:13.605Z,102052.47
2023-01-29T08:51:37.399Z,102053.84
2023-01-29T08:54:01.120Z,102043.97
2023-01-29T08:56:24.974Z,102034.56
2023-01-29T08:58:48.852Z,102041.88
2023-01-29T09:01:15.649Z,102037.56
2023-01-29T09:03:41.228Z,102048.66
2023-01-29T09:06:05.742Z,102038.31
2023-01-29T09:08:29.488Z,102030.50
2023-01-29T09:10:53.257Z,102040.06
2023-01-29T09:13:17.048Z,102036.00
2023-01-29T09:15:40.709Z,102046.00
2023-01-29T09:18:07.518Z,102044.47
2023-01-29T09:20:31.207Z,102029.94
2023-01-29T09:22:56.732Z,102039.72
2023-01-29T09:25:20.542Z,102029.84
2023-01-29T09:27:44.272Z,102030.75
2023-01-29T09:30:09.470Z,102036.47
2023-01-29T09:35:19.201Z,102025.75
2023-01-29T09:37:42.899Z,102024.72
2023-01-29T09:40:08.645Z,102031.56
2023-01-29T09:42:41.985Z,102028.19
2023-01-29T09:45:13.870Z,102010.13
2023-01-29T09:47:38.478Z,101997.69
2023-01-29T09:50:05.949Z,102006.72
2023-01-29T09:52:34.829Z,102004.75
2023-01-29T09:55:04.851Z,102000.53
2023-01-29T09:57:38.493Z,101993.78
2023-01-29T10:00:02.337Z,101990.06
2023-01-29T10:03:11.042Z,101988.78
2023-01-29T10:05:52.024Z,101994.06
2023-01-29T10:08:45.056Z,101980.97
2023-01-29T10:11:20.612Z,101982.84
2023-01-29T10:13:53.615Z,101977.03
2023-01-29T10:16:39.582Z,101977.88
2023-01-29T10:19:25.392Z,101973.06
2023-01-29T10:22:28.828Z,101994.34
2023-01-29T10:24:59.201Z,101994.22
2023-01-29T10:27:22.972Z,101991.44
2023-01-29T10:29:50.664Z,101994.84
2023-01-29T10:32:18.587Z,101984.34
2023-01-29T10:34:47.054Z,101992.28
2023-01-29T10:37:19.713Z,101974.25
2023-01-29T10:39:43.689Z,101970.13
2023-01-29T10:42:24.367Z,101953.50
2023-01-29T10:45:05.116Z,101950.91
2023-01-29T10:47:55.472Z,101955.50
2023-01-29T10:50:35.731Z,101940.25
2023-01-29T10:53:20.831Z,101948.81
2023-01-29T10:55:56.619Z,101944.78
2023-01-29T10:58:32.505Z,101923.50
2023-01-29T11:00:56.237Z,101916.00
2023-01-29T11:03:28.470Z,101914.44
2023-01-29T11:05:59.957Z,101909.69
2023-01-29T11:08:29.486Z,101904.03
2023-01-29T11:11:04.295Z,101903.69
2023-01-29T11:13:36.661Z,101903.59
2023-01-29T11:16:00.362Z,101903.69
2023-01-29T11:18:24.039Z,101898.13
2023-01-29T11:20:48.350Z,101890.47
2023-01-29T11:23:28.535Z,101893.38
2023-01-29T11:25:55.651Z,101881.56
2023-01-29T11:28:40.127Z,101882.31
2023-01-29T11:31:04.318Z,101885.53
2023-01-29T11:33:28.084Z,101890.13
2023-01-29T11:35:53.009Z,101870.91
2023-01-29T11:38:23.242Z,101873.22
2023-01-29T11:40:47.418Z,101870.47
2023-01-29T11:43:21.871Z,101869.59
2023-01-29T11:45:47.440Z,101860.63
2023-01-29T11:48:17.836Z,101856.25
2023-01-29T11:50:42.224Z,101852.16
2023-01-29T11:53:07.169Z,101860.41
2023-01-29T11:55:49.502Z,101847.59
2023-01-29T11:58:18.818Z,101846.56
2023-01-29T12:00:48.654Z,101845.88
2023-01-29T12:03:18.178Z,101843.56
2023-01-29T12:05:43.217Z,101842.66
2023-01-29T12:08:19.057Z,101840.59
2023-01-29T12:10:44.048Z,101830.88
2023-01-29T12:13:22.864Z,101835.59
2023-01-29T12:15:49.134Z,101831.44
2023-01-29T12:18:21.539Z,101833.59
2023-01-29T12:20:51.652Z,101832.09
2023-01-29T12:23:32.399Z,101832.41
2023-01-29T12:26:05.860Z,101837.63
2023-01-29T12:28:44.461Z,101816.00
2023-01-29T12:31:23.801Z,101810.41
2023-01-29T12:33:54.460Z,101801.94
2023-01-29T12:36:27.168Z,101796.81
2023-01-29T12:38:51.217Z,101790.94
2023-01-29T12:41:40.327Z,101787.69
2023-01-29T12:44:12.121Z,101785.91
2023-01-29T12:46:50.544Z,101784.38
2023-01-29T12:49:20.575Z,101784.28
2023-01-29T12:51:54.486Z,101774.81
2023-01-29T12:54:24.784Z,101791.72
2023-01-29T12:56:52.151Z,101785.22
2023-01-29T12:59:25.086Z,101778.28
2023-01-29T13:01:54.645Z,101778.63
2023-01-29T13:04:30.803Z,101778.13
2023-01-29T13:07:03.012Z,101777.06
2023-01-29T13:09:33.689Z,101775.44
2023-01-29T13:12:02.143Z,101775.22
2023-01-29T13:14:30.076Z,101764.31
2023-01-29T13:17:07.702Z,101773.91
2023-01-29T13:19:36.892Z,101771.84
2023-01-29T13:22:05.777Z,101761.41
2023-01-29T13:24:37.967Z,101757.09
2023-01-29T13:27:02.383Z,101759.06
2023-01-29T13:29:28.218Z,101755.16
2023-01-29T13:31:55.696Z,101758.81
2023-01-29T13:34:24.939Z,101751.63
2023-01-29T13:36:52.764Z,101749.44
2023-01-29T13:39:26.268Z,101753.84
2023-01-29T13:41:51.819Z,101741.09
2023-01-29T13:44:26.557Z,101747.09
2023-01-29T13:46:57.458Z,101748.22
2023-01-29T13:49:33.128Z,101747.44
2023-01-29T13:51:57.319Z,101744.66
2023-01-29T13:54:26.255Z,101739.38
2023-01-29T13:57:01.620Z,101740.50
2023-01-29T13:59:53.546Z,101734.59
2023-01-29T14:02:30.270Z,101736.31
2023-01-29T14:05:33.899Z,101714.25
2023-01-29T14:07:59.453Z,101714.47
2023-01-29T14:10:25.407Z,101701.19
2023-01-29T14:13:28.152Z,101712.56
2023-01-29T14:16:37.151Z,101718.06
2023-01-29T14:19:04.406Z,101718.91
2023-01-29T14:21:32.052Z,101720.31
2023-01-29T14:23:59.387Z,101709.19
2023-01-29T14:26:28.254Z,101716.84
2023-01-29T14:29:06.057Z,101715.81
2023-01-29T14:31:40.958Z,101713.19
2023-01-29T14:34:16.824Z,101702.72
2023-01-29T14:36:42.249Z,101705.50
2023-01-29T14:39:07.023Z,101698.00
2023-01-29T14:41:34.129Z,101695.53
2023-01-29T14:44:48.593Z,101700.81
2023-01-29T14:47:23.499Z,101698.91
2023-01-29T14:49:55.495Z,101701.69
2023-01-29T14:52:23.159Z,101695.97
2023-01-29T14:54:48.950Z,101697.56
2023-01-29T14:57:17.055Z,101698.34
2023-01-29T14:59:51.294Z,101692.75
2023-01-29T15:02:22.616Z,101694.25
2023-01-29T15:04:51.475Z,101684.41
2023-01-29T15:07:27.131Z,101695.91
2023-01-29T15:10:07.913Z,101682.84
2023-01-29T15:12:47.682Z,101681.19
2023-01-29T15:15:22.296Z,101679.84
2023-01-29T15:17:57.241Z,101670.69
2023-01-29T15:20:37.034Z,101669.88
2023-01-29T15:23:03.280Z,101667.19
2023-01-29T15:25:28.772Z,101664.38
2023-01-29T15:27:53.213Z,101659.50
2023-01-29T15:30:21.143Z,101657.22
2023-01-29T15:32:45.132Z,101653.09
2023-01-29T15:35:11.801Z,101655.09
2023-01-29T15:37:38.771Z,101650.44
2023-01-29T15:40:03.486Z,101653.31
2023-01-29T15:42:29.627Z,101646.19
2023-01-29T15:44:55.646Z,101639.75
2023-01-29T15:47:19.822Z,101636.53
2023-01-29T15:49:44.477Z,101637.69
2023-01-29T15:52:16.672Z,101626.47
2023-01-29T15:54:42.207Z,101629.56
2023-01-29T15:57:07.378Z,101623.41
2023-01-29T15:59:35.728Z,101611.13
2023-01-29T16:02:00.127Z,101610.44
2023-01-29T16:04:29.044Z,101608.31
2023-01-29T16:06:55.005Z,101606.03
2023-01-29T16:09:23.780Z,101616.91
2023-01-29T16:11:50.540Z,101617.84
2023-01-29T16:14:17.677Z,101612.16
2023-01-29T16:16:45.006Z,101616.47
2023-01-29T16:19:22.408Z,101616.69
2023-01-29T16:21:47.072Z,101615.88
2023-01-29T16:24:15.936Z,101616.63
2023-01-29T16:26:48.370Z,101612.25
2023-01-29T16:29:18.595Z,101609.56
2023-01-29T16:31:44.574Z,101612.66
2023-01-29T16:34:10.452Z,101612.47
2023-01-29T16:36:34.367Z,101606.94
2023-01-29T16:39:01.224Z,101611.78
2023-01-29T16:41:33.273Z,101612.09
2023-01-29T16:44:00.443Z,101604.09
2023-01-29T16:46:34.098Z,101607.56
2023-01-29T16:48:57.881Z,101614.97
2023-01-29T16:51:28.430Z,101595.75
2023-01-29T16:54:02.569Z,101605.00
2023-01-29T16:56:29.029Z,101601.31
2023-01-29T16:58:53.778Z,101594.66
2023-01-29T17:01:19.702Z,101588.34
2023-01-29T17:03:43.981Z,101584.78
2023-01-29T17:06:11.906Z,101581.06
2023-01-29T17:08:37.174Z,101575.81
2023-01-29T17:11:01.690Z,101582.53
2023-01-29T17:13:31.430Z,101573.44
2023-01-29T17:15:55.336Z,101581.06
2023-01-29T17:18:24.583Z,101569.69
2023-01-29T17:20:48.535Z,101565.38
2023-01-29T17:23:12.292Z,101563.75
2023-01-29T17:25:35.996Z,101560.38
2023-01-29T17:28:02.238Z,101556.81
2023-01-29T17:30:28.633Z,101558.59
2023-01-29T17:32:52.366Z,101555.44
2023-01-29T17:35:19.172Z,101541.22
2023-01-29T17:37:43.595Z,101543.28
2023-01-29T17:40:18.163Z,101542.03
2023-01-29T17:42:41.945Z,101535.97
2023-01-29T17:45:06.450Z,101533.03
2023-01-29T17:47:30.626Z,101522.53
2023-01-29T17:49:54.484Z,101516.66
2023-01-29T17:52:19.787Z,101511.31
2023-01-29T17:54:43.461Z,101501.03
2023-01-29T17:57:07.224Z,101501.78
2023-01-29T17:59:33.590Z,101497.75
2023-01-29T18:01:57.600Z,101485.75
2023-01-29T18:04:21.485Z,101479.00
2023-01-29T18:06:48.809Z,101471.50
2023-01-29T18:09:14.954Z,101474.44
2023-01-29T18:11:38.818Z,101479.88
2023-01-29T18:14:13.605Z,101472.88
2023-01-29T18:16:38.366Z,101474.03
2023-01-29T18:19:02.463Z,101473.56
2023-01-29T18:21:26.179Z,101478.19
2023-01-29T18:23:49.872Z,101466.25
2023-01-29T18:26:18.120Z,101473.72
2023-01-29T18:28:43.535Z,101461.34
2023-01-29T18:31:07.543Z,101459.63
2023-01-29T18:33:31.423Z,101462.03
2023-01-29T18:35:55.232Z,101460.44
2023-01-29T18:38:19.489Z,101459.03
2023-01-29T18:40:43.395Z,101454.53
2023-01-29T18:43:08.647Z,101463.59
2023-01-29T18:45:32.738Z,101467.56
2023-01-29T18:47:56.469Z,101457.63
2023-01-29T18:50:23.397Z,101458.88
2023-01-29T18:52:47.073Z,101456.06
2023-01-29T18:55:11.251Z,101447.34
2023-01-29T18:58:26.349Z,101448.78
2023-01-29T19:00:21.411Z,101444.75
2023-01-29T19:02:46.609Z,101438.84
2023-01-29T19:05:10.907Z,101433.19
2023-01-29T19:07:34.603Z,101436.88
2023-01-29T19:09:58.254Z,101439.16
2023-01-29T19:12:22.954Z,101436.56
2023-01-29T19:14:46.784Z,101422.13
2023-01-29T19:17:11.906Z,101419.34
2023-01-29T19:19:36.040Z,101414.09
2023-01-29T19:21:59.810Z,101408.88
2023-01-29T19:24:24.298Z,101407.97
2023-01-29T19:26:48.180Z,101392.38
2023-01-29T19:29:11.999Z,101386.34
2023-01-29T19:31:35.640Z,101383.00
2023-01-29T19:34:00.783Z,101380.88
2023-01-29T19:36:24.437Z,101372.03
2023-01-29T19:38:49.125Z,101367.19
2023-01-29T19:41:13.012Z,101378.56
2023-01-29T19:43:38.265Z,101376.91
2023-01-29T19:46:03.099Z,101371.84
2023-01-29T19:48:27.111Z,101370.44
2023-01-29T19:50:56.448Z,101362.00
2023-01-29T19:53:20.238Z,101375.22
2023-01-29T19:55:43.965Z,101356.66
2023-01-29T19:58:07.683Z,101355.66
2023-01-29T20:00:31.450Z,101352.38
2023-01-29T20:02:55.222Z,101343.69
2023-01-29T20:05:20.380Z,101339.78
2023-01-29T20:07:45.932Z,101331.97
2023-01-29T20:10:17.416Z,101332.28
2023-01-29T20:12:41.342Z,101335.72
2023-01-29T20:15:07.339Z,101322.03
2023-01-29T20:17:31.392Z,101318.03
2023-01-29T20:19:54.989Z,101314.56
2023-01-29T20:22:18.725Z,101307.78
2023-01-29T20:24:43.773Z,101299.38
2023-01-29T20:27:07.713Z,101287.72
2023-01-29T20:29:31.433Z,101290.34
2023-01-29T20:31:55.208Z,101289.28
2023-01-29T20:34:18.814Z,101289.44
2023-01-29T20:36:42.619Z,101282.84
2023-01-29T20:39:06.308Z,101284.91
2023-01-29T20:41:31.565Z,101274.63
2023-01-29T20:43:55.196Z,101272.72
2023-01-29T20:46:19.601Z,101262.06
2023-01-29T20:48:43.523Z,101268.06
2023-01-29T20:51:12.458Z,101247.94
2023-01-29T20:53:36.415Z,101246.47
2023-01-29T20:56:01.039Z,101248.50
2023-01-29T20:58:27.210Z,101247.28
2023-01-29T21:00:50.994Z,101230.84
2023-01-29T21:03:14.832Z,101219.38
2023-01-29T21:05:38.503Z,101214.16
2023-01-29T21:08:02.144Z,101200.75
2023-01-29T21:10:25.887Z,101204.09
2023-01-29T21:12:49.505Z,101205.16
2023-01-29T21:15:14.636Z,101197.63
2023-01-29T21:17:38.337Z,101196.25
2023-01-29T21:20:04.066Z,101200.09
2023-01-29T21:22:27.727Z,101188.00
2023-01-29T21:24:51.647Z,101179.25
2023-01-29T21:27:15.293Z,101163.28
2023-01-29T21:29:38.925Z,101170.19
2023-01-29T21:32:04.549Z,101175.28
2023-01-29T21:34:28.356Z,101164.59
2023-01-29T21:36:51.991Z,101165.13
2023-01-29T21:39:20.671Z,101157.03
2023-01-29T21:42:02.110Z,101150.69
2023-01-29T21:44:25.811Z,101140.72
2023-01-29T21:46:49.440Z,101144.44
2023-01-29T21:49:14.540Z,101139.59
2023-01-29T21:51:38.244Z,101130.22
2023-01-29T21:54:03.520Z,101128.72
2023-01-29T21:56:27.164Z,101132.50
2023-01-29T21:58:52.288Z,101133.31
2023-01-29T22:01:36.219Z,101130.22
2023-01-29T22:03:59.725Z,101123.09
2023-01-29T22:06:25.514Z,101125.47
2023-01-29T22:08:50.646Z,101119.69
2023-01-29T22:11:14.431Z,101120.91
2023-01-29T22:13:38.198Z,101107.09
2023-01-29T22:16:02.234Z,101115.13
2023-01-29T22:18:26.102Z,101106.75
2023-01-29T22:20:55.327Z,101100.41
2023-01-29T22:23:20.570Z,101089.94
2023-01-29T22:25:44.712Z,101084.56
2023-01-29T22:28:09.261Z,101077.34
2023-01-29T22:30:33.151Z,101065.78
2023-01-29T22:32:56.935Z,101061.16
2023-01-29T22:35:20.529Z,101054.59
2023-01-29T22:37:45.083Z,101052.72
2023-01-29T22:40:12.718Z,101049.66
2023-01-29T22:42:36.438Z,101047.69
2023-01-29T22:45:00.133Z,101034.03
2023-01-29T22:47:23.944Z,101036.47
2023-01-29T22:49:50.100Z,101033.31
2023-01-29T22:52:13.868Z,101016.13
2023-01-29T22:54:38.613Z,101010.69
2023-01-29T22:57:03.782Z,100992.13
2023-01-29T22:59:28.739Z,100994.94
2023-01-29T23:01:53.794Z,100999.16
2023-01-29T23:04:17.447Z,100986.72
2023-01-29T23:06:41.174Z,100992.50
2023-01-29T23:09:04.871Z,100992.41
2023-01-29T23:11:28.872Z,100989.22
2023-01-29T23:13:55.631Z,100970.84
2023-01-29T23:16:21.429Z,100983.13
2023-01-29T23:18:45.847Z,100977.06
2023-01-29T23:21:10.522Z,100959.63
2023-01-29T23:23:36.066Z,100962.22
2023-01-29T23:26:17.721Z,100950.34
2023-01-29T23:28:41.747Z,100949.75
2023-01-29T23:31:07.075Z,100948.19
2023-01-29T23:33:30.834Z,100932.50
2023-01-29T23:35:54.432Z,100929.75
2023-01-29T23:38:18.594Z,100927.81
2023-01-29T23:40:42.268Z,100925.53
2023-01-29T23:43:05.959Z,100930.41
2023-01-29T23:45:29.610Z,100916.06
2023-01-29T23:47:54.705Z,100907.19
2023-01-29T23:50:19.277Z,100908.44
2023-01-29T23:52:43.363Z,100904.06
2023-01-29T23:55:08.598Z,100899.22
2023-01-29T23:57:32.289Z,100897.53
2023-01-29T23:59:55.912Z,100882.59
